首页
METAR-TAF:

METAR-TAF

机场 :

Falls International Airport

國際瀑布城, 明尼蘇達州, 美国

纬度: 48-33-43N, 经度: 093-23-52W, 海拔: 361米

当前天气观测

该预报发布于49分钟前的08:54 UTC
风速6节,风向西北
温度 11°C
湿度 87%
气压 1022 hPa
能見度: 16.1公里
天空无云

METAR: KINL 010854Z AUTO 32006KT 10SM CLR 11/09 A3017 RMK AO2 SLP218 T01110089 53013

时间: 04:43 (09:43 UTC)

预报

该预报发布于4小时和6分钟前的05:37 UTC
预报有效从01日的 06点(UTC)到 02日的 06点(UTC)
风速3节,风向多变
能見度: 10公里
天空无云
从 01日的 1200点(UTC)
风速3节,风向多变
能見度: 10公里
散云层高于5000英尺
从 01日的 1600点(UTC)
风速7节,风向,有时为14节阵风
能見度: 10公里
多云层高于7000英尺
从 01日的 2000点(UTC)
风速9节,风向北转西北
能見度: 10公里
多云层高于9000英尺

TAF: KINL 010537Z 0106/0206 VRB03KT P6SM SKC FM011200 VRB03KT P6SM SCT050 FM011600 35007G14KT P6SM BKN070 FM012000 34009KT P6SM BKN090

超过4000个机场的气象观测和天气预报(METAR&TAF报告)。

可查询的气象台以黄色和红色小点在地图上表示。

将鼠标移到小点上方,可查看气象台名称。

然后点击查看天气观测和预报。

如需切换地图:点击带黑十字的绿色按钮放大地图;点击带横线的绿色按钮缩小地图;或者点击绿色箭头查看邻近地区的地图。


METAR-TAF: